sensor_id;sensor_type;location;lat;lon;timestamp;temperature;humidity
18948;DHT22;9607;51.600;7.558;2023-05-29T00:00:59;12.90;99.90
18948;DHT22;9607;51.600;7.558;2023-05-29T00:03:26;12.80;99.90
18948;DHT22;9607;51.600;7.558;2023-05-29T00:05:53;12.70;99.90
18948;DHT22;9607;51.600;7.558;2023-05-29T00:08:20;12.70;99.90
18948;DHT22;9607;51.600;7.558;2023-05-29T00:10:48;12.60;99.90
18948;DHT22;9607;51.600;7.558;2023-05-29T00:13:15;12.50;99.90
18948;DHT22;9607;51.600;7.558;2023-05-29T00:15:42;12.50;99.90
18948;DHT22;9607;51.600;7.558;2023-05-29T00:18:09;12.50;99.90
18948;DHT22;9607;51.600;7.558;2023-05-29T00:20:37;12.40;99.90
18948;DHT22;9607;51.600;7.558;2023-05-29T00:23:04;12.40;99.90
18948;DHT22;9607;51.600;7.558;2023-05-29T00:25:31;12.30;99.90
18948;DHT22;9607;51.600;7.558;2023-05-29T00:28:00;12.20;99.90
18948;DHT22;9607;51.600;7.558;2023-05-29T00:30:27;12.20;99.90
18948;DHT22;9607;51.600;7.558;2023-05-29T00:32:53;12.20;99.90
18948;DHT22;9607;51.600;7.558;2023-05-29T00:35:20;12.10;99.90
18948;DHT22;9607;51.600;7.558;2023-05-29T00:37:47;12.00;99.90
18948;DHT22;9607;51.600;7.558;2023-05-29T00:40:14;12.00;99.90
18948;DHT22;9607;51.600;7.558;2023-05-29T00:42:41;11.90;99.90
18948;DHT22;9607;51.600;7.558;2023-05-29T00:45:10;11.90;99.90
18948;DHT22;9607;51.600;7.558;2023-05-29T00:47:38;11.80;99.90
18948;DHT22;9607;51.600;7.558;2023-05-29T00:50:06;11.90;99.90
18948;DHT22;9607;51.600;7.558;2023-05-29T00:52:35;11.80;99.90
18948;DHT22;9607;51.600;7.558;2023-05-29T00:55:02;11.80;99.90
18948;DHT22;9607;51.600;7.558;2023-05-29T00:57:30;11.70;99.90
18948;DHT22;9607;51.600;7.558;2023-05-29T00:59:58;11.70;99.90
18948;DHT22;9607;51.600;7.558;2023-05-29T01:02:29;11.60;99.90
18948;DHT22;9607;51.600;7.558;2023-05-29T01:04:57;11.60;99.90
18948;DHT22;9607;51.600;7.558;2023-05-29T01:07:23;11.60;99.90
18948;DHT22;9607;51.600;7.558;2023-05-29T01:09:51;11.60;99.90
18948;DHT22;9607;51.600;7.558;2023-05-29T01:12:25;11.50;99.90
18948;DHT22;9607;51.600;7.558;2023-05-29T01:15:04;11.50;99.90
18948;DHT22;9607;51.600;7.558;2023-05-29T01:17:41;11.50;99.90
18948;DHT22;9607;51.600;7.558;2023-05-29T01:20:19;11.40;99.90
18948;DHT22;9607;51.600;7.558;2023-05-29T01:23:03;11.40;99.90
18948;DHT22;9607;51.600;7.558;2023-05-29T01:25:46;11.30;99.90
18948;DHT22;9607;51.600;7.558;2023-05-29T01:28:20;11.20;99.90
18948;DHT22;9607;51.600;7.558;2023-05-29T01:30:49;11.20;99.90
18948;DHT22;9607;51.600;7.558;2023-05-29T01:33:17;11.10;99.90
18948;DHT22;9607;51.600;7.558;2023-05-29T01:35:44;11.10;99.90
18948;DHT22;9607;51.600;7.558;2023-05-29T01:38:11;11.00;99.90
18948;DHT22;9607;51.600;7.558;2023-05-29T01:40:38;11.00;99.90
18948;DHT22;9607;51.600;7.558;2023-05-29T01:43:05;11.00;99.90
18948;DHT22;9607;51.600;7.558;2023-05-29T01:45:34;10.90;99.90
18948;DHT22;9607;51.600;7.558;2023-05-29T01:48:02;10.90;99.90
18948;DHT22;9607;51.600;7.558;2023-05-29T01:50:29;10.90;99.90
18948;DHT22;9607;51.600;7.558;2023-05-29T01:52:57;10.80;99.90
18948;DHT22;9607;51.600;7.558;2023-05-29T01:55:24;10.80;99.90
18948;DHT22;9607;51.600;7.558;2023-05-29T01:57:51;10.70;99.90
18948;DHT22;9607;51.600;7.558;2023-05-29T02:00:19;10.70;99.90
18948;DHT22;9607;51.600;7.558;2023-05-29T02:02:47;10.70;99.90
18948;DHT22;9607;51.600;7.558;2023-05-29T02:05:15;10.60;99.90
18948;DHT22;9607;51.600;7.558;2023-05-29T02:07:43;10.60;99.90
18948;DHT22;9607;51.600;7.558;2023-05-29T02:10:10;10.50;99.90
18948;DHT22;9607;51.600;7.558;2023-05-29T02:12:37;10.50;99.90
18948;DHT22;9607;51.600;7.558;2023-05-29T02:15:04;10.50;99.90
18948;DHT22;9607;51.600;7.558;2023-05-29T02:17:31;10.50;99.90
18948;DHT22;9607;51.600;7.558;2023-05-29T02:20:00;10.50;99.90
18948;DHT22;9607;51.600;7.558;2023-05-29T02:22:27;10.50;99.90
18948;DHT22;9607;51.600;7.558;2023-05-29T02:24:54;10.40;99.90
18948;DHT22;9607;51.600;7.558;2023-05-29T02:27:20;10.30;99.90
18948;DHT22;9607;51.600;7.558;2023-05-29T02:29:48;10.40;99.90
18948;DHT22;9607;51.600;7.558;2023-05-29T02:32:15;10.40;99.90
18948;DHT22;9607;51.600;7.558;2023-05-29T02:34:41;10.30;99.90
18948;DHT22;9607;51.600;7.558;2023-05-29T02:37:10;10.30;99.90
18948;DHT22;9607;51.600;7.558;2023-05-29T02:39:37;10.20;99.90
18948;DHT22;9607;51.600;7.558;2023-05-29T02:42:04;10.20;99.90
18948;DHT22;9607;51.600;7.558;2023-05-29T02:44:31;10.20;99.90
18948;DHT22;9607;51.600;7.558;2023-05-29T02:46:58;10.10;99.90
18948;DHT22;9607;51.600;7.558;2023-05-29T02:49:24;10.10;99.90
18948;DHT22;9607;51.600;7.558;2023-05-29T02:51:51;10.10;99.90
18948;DHT22;9607;51.600;7.558;2023-05-29T02:54:23;10.00;99.90
18948;DHT22;9607;51.600;7.558;2023-05-29T02:56:51;10.00;99.90
18948;DHT22;9607;51.600;7.558;2023-05-29T02:59:18;9.90;99.90
18948;DHT22;9607;51.600;7.558;2023-05-29T03:01:44;9.90;99.90
18948;DHT22;9607;51.600;7.558;2023-05-29T03:04:13;9.80;99.90
18948;DHT22;9607;51.600;7.558;2023-05-29T03:06:40;9.80;99.90
18948;DHT22;9607;51.600;7.558;2023-05-29T03:09:07;9.80;99.90
18948;DHT22;9607;51.600;7.558;2023-05-29T03:11:35;9.70;99.90
18948;DHT22;9607;51.600;7.558;2023-05-29T03:14:03;9.70;99.90
18948;DHT22;9607;51.600;7.558;2023-05-29T03:16:30;9.70;99.90
18948;DHT22;9607;51.600;7.558;2023-05-29T03:18:57;9.70;99.90
18948;DHT22;9607;51.600;7.558;2023-05-29T03:21:24;9.70;99.90
18948;DHT22;9607;51.600;7.558;2023-05-29T03:23:51;9.60;99.90
18948;DHT22;9607;51.600;7.558;2023-05-29T03:26:18;9.60;99.90
18948;DHT22;9607;51.600;7.558;2023-05-29T03:28:46;9.60;99.90
18948;DHT22;9607;51.600;7.558;2023-05-29T03:31:13;9.60;99.90
18948;DHT22;9607;51.600;7.558;2023-05-29T03:33:41;9.50;99.90
18948;DHT22;9607;51.600;7.558;2023-05-29T03:36:08;9.60;99.90
18948;DHT22;9607;51.600;7.558;2023-05-29T03:38:36;9.50;99.90
18948;DHT22;9607;51.600;7.558;2023-05-29T03:41:03;9.50;99.90
18948;DHT22;9607;51.600;7.558;2023-05-29T03:43:30;9.40;99.90
18948;DHT22;9607;51.600;7.558;2023-05-29T03:45:58;9.40;99.90
18948;DHT22;9607;51.600;7.558;2023-05-29T03:48:25;9.40;99.90
18948;DHT22;9607;51.600;7.558;2023-05-29T03:50:52;9.50;99.90
18948;DHT22;9607;51.600;7.558;2023-05-29T03:53:18;9.50;99.90
18948;DHT22;9607;51.600;7.558;2023-05-29T03:55:45;9.50;99.90
18948;DHT22;9607;51.600;7.558;2023-05-29T03:58:12;9.50;99.90
18948;DHT22;9607;51.600;7.558;2023-05-29T04:00:39;9.50;99.90
18948;DHT22;9607;51.600;7.558;2023-05-29T04:03:08;9.50;99.90
18948;DHT22;9607;51.600;7.558;2023-05-29T04:05:35;9.60;99.90
18948;DHT22;9607;51.600;7.558;2023-05-29T04:08:01;9.60;99.90
18948;DHT22;9607;51.600;7.558;2023-05-29T04:10:30;9.70;99.90
18948;DHT22;9607;51.600;7.558;2023-05-29T04:12:59;9.70;99.90
18948;DHT22;9607;51.600;7.558;2023-05-29T04:15:26;9.70;99.90
18948;DHT22;9607;51.600;7.558;2023-05-29T04:17:53;9.80;99.90
18948;DHT22;9607;51.600;7.558;2023-05-29T04:20:21;9.80;99.90
18948;DHT22;9607;51.600;7.558;2023-05-29T04:22:48;9.80;99.90
18948;DHT22;9607;51.600;7.558;2023-05-29T04:25:15;9.80;99.90
18948;DHT22;9607;51.600;7.558;2023-05-29T04:27:43;9.90;99.90
18948;DHT22;9607;51.600;7.558;2023-05-29T04:30:15;9.90;99.90
18948;DHT22;9607;51.600;7.558;2023-05-29T04:32:42;10.00;99.90
18948;DHT22;9607;51.600;7.558;2023-05-29T04:35:09;10.00;99.90
18948;DHT22;9607;51.600;7.558;2023-05-29T04:37:37;10.10;99.90
18948;DHT22;9607;51.600;7.558;2023-05-29T04:40:05;10.10;99.90
18948;DHT22;9607;51.600;7.558;2023-05-29T04:42:34;10.10;99.90
18948;DHT22;9607;51.600;7.558;2023-05-29T04:45:02;10.20;99.90
18948;DHT22;9607;51.600;7.558;2023-05-29T04:47:29;10.30;99.90
18948;DHT22;9607;51.600;7.558;2023-05-29T04:49:58;10.30;99.90
18948;DHT22;9607;51.600;7.558;2023-05-29T04:52:25;10.40;99.90
18948;DHT22;9607;51.600;7.558;2023-05-29T04:54:54;10.40;99.90
18948;DHT22;9607;51.600;7.558;2023-05-29T04:57:22;10.50;99.90
18948;DHT22;9607;51.600;7.558;2023-05-29T04:59:49;10.50;99.90
18948;DHT22;9607;51.600;7.558;2023-05-29T05:02:18;10.60;99.90
18948;DHT22;9607;51.600;7.558;2023-05-29T05:04:45;10.60;99.90
18948;DHT22;9607;51.600;7.558;2023-05-29T05:07:12;10.70;99.90
18948;DHT22;9607;51.600;7.558;2023-05-29T05:09:41;10.80;99.90
18948;DHT22;9607;51.600;7.558;2023-05-29T05:12:09;10.90;99.90
18948;DHT22;9607;51.600;7.558;2023-05-29T05:14:36;10.90;99.90
18948;DHT22;9607;51.600;7.558;2023-05-29T05:17:03;11.00;99.90
18948;DHT22;9607;51.600;7.558;2023-05-29T05:19:30;11.10;99.90
18948;DHT22;9607;51.600;7.558;2023-05-29T05:21:57;11.10;99.90
18948;DHT22;9607;51.600;7.558;2023-05-29T05:24:24;11.20;99.90
18948;DHT22;9607;51.600;7.558;2023-05-29T05:26:51;11.20;99.90
18948;DHT22;9607;51.600;7.558;2023-05-29T05:29:19;11.30;99.90
18948;DHT22;9607;51.600;7.558;2023-05-29T05:31:46;11.40;99.90
18948;DHT22;9607;51.600;7.558;2023-05-29T05:34:13;11.40;99.90
18948;DHT22;9607;51.600;7.558;2023-05-29T05:36:40;11.50;99.90
18948;DHT22;9607;51.600;7.558;2023-05-29T05:39:07;11.60;99.90
18948;DHT22;9607;51.600;7.558;2023-05-29T05:41:34;11.70;99.90
18948;DHT22;9607;51.600;7.558;2023-05-29T05:44:00;11.80;99.90
18948;DHT22;9607;51.600;7.558;2023-05-29T05:46:29;11.90;99.90
18948;DHT22;9607;51.600;7.558;2023-05-29T05:48:55;12.00;99.90
18948;DHT22;9607;51.600;7.558;2023-05-29T05:51:23;12.10;99.90
18948;DHT22;9607;51.600;7.558;2023-05-29T05:53:50;12.20;99.90
18948;DHT22;9607;51.600;7.558;2023-05-29T05:56:17;12.30;99.90
18948;DHT22;9607;51.600;7.558;2023-05-29T05:58:44;12.40;99.90
18948;DHT22;9607;51.600;7.558;2023-05-29T06:01:11;12.40;99.90
18948;DHT22;9607;51.600;7.558;2023-05-29T06:03:39;12.50;99.90
18948;DHT22;9607;51.600;7.558;2023-05-29T06:06:06;12.50;99.90
18948;DHT22;9607;51.600;7.558;2023-05-29T06:08:34;12.60;99.90
18948;DHT22;9607;51.600;7.558;2023-05-29T06:11:01;12.80;99.90
18948;DHT22;9607;51.600;7.558;2023-05-29T06:13:28;12.90;99.90
18948;DHT22;9607;51.600;7.558;2023-05-29T06:15:54;13.00;99.90
18948;DHT22;9607;51.600;7.558;2023-05-29T06:18:21;13.10;99.90
18948;DHT22;9607;51.600;7.558;2023-05-29T06:20:50;13.20;99.90
18948;DHT22;9607;51.600;7.558;2023-05-29T06:23:17;13.20;99.90
18948;DHT22;9607;51.600;7.558;2023-05-29T06:25:44;13.30;99.90
18948;DHT22;9607;51.600;7.558;2023-05-29T06:28:11;13.40;99.90
18948;DHT22;9607;51.600;7.558;2023-05-29T06:30:39;13.40;99.90
18948;DHT22;9607;51.600;7.558;2023-05-29T06:33:05;13.50;99.90
18948;DHT22;9607;51.600;7.558;2023-05-29T06:35:32;13.60;99.90
18948;DHT22;9607;51.600;7.558;2023-05-29T06:38:00;13.70;99.90
18948;DHT22;9607;51.600;7.558;2023-05-29T06:40:27;13.70;99.90
18948;DHT22;9607;51.600;7.558;2023-05-29T06:42:54;13.80;99.90
18948;DHT22;9607;51.600;7.558;2023-05-29T06:45:21;13.90;99.90
18948;DHT22;9607;51.600;7.558;2023-05-29T06:47:48;13.90;99.90
18948;DHT22;9607;51.600;7.558;2023-05-29T06:50:15;14.00;99.90
18948;DHT22;9607;51.600;7.558;2023-05-29T06:52:41;14.10;99.90
18948;DHT22;9607;51.600;7.558;2023-05-29T06:55:13;14.10;99.90
18948;DHT22;9607;51.600;7.558;2023-05-29T07:00:18;14.30;99.90
18948;DHT22;9607;51.600;7.558;2023-05-29T07:02:45;14.40;99.90
18948;DHT22;9607;51.600;7.558;2023-05-29T07:05:12;14.40;99.90
18948;DHT22;9607;51.600;7.558;2023-05-29T07:07:39;14.50;99.90
18948;DHT22;9607;51.600;7.558;2023-05-29T07:10:06;14.40;99.90
18948;DHT22;9607;51.600;7.558;2023-05-29T07:12:35;14.40;99.90
18948;DHT22;9607;51.600;7.558;2023-05-29T07:15:02;14.40;99.90
18948;DHT22;9607;51.600;7.558;2023-05-29T07:17:29;14.50;99.90
18948;DHT22;9607;51.600;7.558;2023-05-29T07:19:56;14.50;99.90
18948;DHT22;9607;51.600;7.558;2023-05-29T07:22:23;14.60;99.90
18948;DHT22;9607;51.600;7.558;2023-05-29T07:24:50;14.70;99.90
18948;DHT22;9607;51.600;7.558;2023-05-29T07:27:17;14.80;99.90
18948;DHT22;9607;51.600;7.558;2023-05-29T07:29:45;15.00;99.90
18948;DHT22;9607;51.600;7.558;2023-05-29T07:32:12;15.20;99.90
18948;DHT22;9607;51.600;7.558;2023-05-29T07:34:39;15.30;99.90
18948;DHT22;9607;51.600;7.558;2023-05-29T07:37:06;15.40;99.90
18948;DHT22;9607;51.600;7.558;2023-05-29T07:39:35;15.60;99.90
18948;DHT22;9607;51.600;7.558;2023-05-29T07:42:02;15.70;99.90
18948;DHT22;9607;51.600;7.558;2023-05-29T07:44:29;15.80;99.90
18948;DHT22;9607;51.600;7.558;2023-05-29T07:46:57;15.90;99.90
18948;DHT22;9607;51.600;7.558;2023-05-29T07:49:24;16.00;99.90
18948;DHT22;9607;51.600;7.558;2023-05-29T07:51:51;16.00;99.90
18948;DHT22;9607;51.600;7.558;2023-05-29T07:54:18;16.00;99.90
18948;DHT22;9607;51.600;7.558;2023-05-29T07:56:46;16.10;99.90
18948;DHT22;9607;51.600;7.558;2023-05-29T07:59:13;16.10;99.90
18948;DHT22;9607;51.600;7.558;2023-05-29T08:01:40;16.00;99.90
18948;DHT22;9607;51.600;7.558;2023-05-29T08:04:10;16.10;99.90
18948;DHT22;9607;51.600;7.558;2023-05-29T08:06:37;16.10;99.90
18948;DHT22;9607;51.600;7.558;2023-05-29T08:09:07;16.20;99.90
18948;DHT22;9607;51.600;7.558;2023-05-29T08:11:34;16.20;99.90
18948;DHT22;9607;51.600;7.558;2023-05-29T08:14:01;16.20;99.90
18948;DHT22;9607;51.600;7.558;2023-05-29T08:16:28;16.30;99.90
18948;DHT22;9607;51.600;7.558;2023-05-29T08:18:55;16.30;99.90
18948;DHT22;9607;51.600;7.558;2023-05-29T08:21:24;16.30;99.90
18948;DHT22;9607;51.600;7.558;2023-05-29T08:23:51;16.40;99.90
18948;DHT22;9607;51.600;7.558;2023-05-29T08:26:18;16.40;99.90
18948;DHT22;9607;51.600;7.558;2023-05-29T08:28:44;16.50;99.90
18948;DHT22;9607;51.600;7.558;2023-05-29T08:31:11;16.50;99.90
18948;DHT22;9607;51.600;7.558;2023-05-29T08:33:38;16.60;99.90
18948;DHT22;9607;51.600;7.558;2023-05-29T08:36:05;16.70;99.90
18948;DHT22;9607;51.600;7.558;2023-05-29T08:38:34;16.90;99.90
18948;DHT22;9607;51.600;7.558;2023-05-29T08:41:00;17.00;99.90
18948;DHT22;9607;51.600;7.558;2023-05-29T08:43:31;17.10;99.90
18948;DHT22;9607;51.600;7.558;2023-05-29T08:46:00;17.30;99.90
18948;DHT22;9607;51.600;7.558;2023-05-29T08:48:29;17.40;99.90
18948;DHT22;9607;51.600;7.558;2023-05-29T08:50:57;17.50;99.90
18948;DHT22;9607;51.600;7.558;2023-05-29T08:58:37;17.60;99.90
18948;DHT22;9607;51.600;7.558;2023-05-29T09:01:04;17.80;99.70
18948;DHT22;9607;51.600;7.558;2023-05-29T09:08:43;18.00;99.80
18948;DHT22;9607;51.600;7.558;2023-05-29T09:11:10;18.20;99.00
18948;DHT22;9607;51.600;7.558;2023-05-29T09:13:38;18.40;99.00
18948;DHT22;9607;51.600;7.558;2023-05-29T09:16:07;18.60;99.00
18948;DHT22;9607;51.600;7.558;2023-05-29T09:23:45;18.90;97.50
18948;DHT22;9607;51.600;7.558;2023-05-29T09:26:14;19.00;95.90
18948;DHT22;9607;51.600;7.558;2023-05-29T09:28:45;18.90;96.00
18948;DHT22;9607;51.600;7.558;2023-05-29T09:33:48;18.70;95.30
18948;DHT22;9607;51.600;7.558;2023-05-29T09:36:20;18.80;96.80
18948;DHT22;9607;51.600;7.558;2023-05-29T09:49:22;19.00;93.80
18948;DHT22;9607;51.600;7.558;2023-05-29T09:51:53;19.10;93.90
18948;DHT22;9607;51.600;7.558;2023-05-29T09:56:56;19.30;94.70
18948;DHT22;9607;51.600;7.558;2023-05-29T10:09:53;20.00;93.10
18948;DHT22;9607;51.600;7.558;2023-05-29T10:14:57;20.30;91.40
18948;DHT22;9607;51.600;7.558;2023-05-29T10:22:40;20.60;90.60
18948;DHT22;9607;51.600;7.558;2023-05-29T10:30:27;20.80;86.70
18948;DHT22;9607;51.600;7.558;2023-05-29T10:33:20;20.60;87.20
18948;DHT22;9607;51.600;7.558;2023-05-29T10:35:55;20.50;89.20
18948;DHT22;9607;51.600;7.558;2023-05-29T10:38:27;20.60;90.00
18948;DHT22;9607;51.600;7.558;2023-05-29T10:40:54;20.80;87.90
18948;DHT22;9607;51.600;7.558;2023-05-29T10:43:30;21.00;88.40
18948;DHT22;9607;51.600;7.558;2023-05-29T10:46:00;21.10;83.50
18948;DHT22;9607;51.600;7.558;2023-05-29T10:48:37;21.10;85.50
18948;DHT22;9607;51.600;7.558;2023-05-29T10:51:05;20.90;82.70
18948;DHT22;9607;51.600;7.558;2023-05-29T10:53:33;20.90;85.30
18948;DHT22;9607;51.600;7.558;2023-05-29T10:56:08;21.00;84.40
18948;DHT22;9607;51.600;7.558;2023-05-29T10:58:37;21.10;82.50
18948;DHT22;9607;51.600;7.558;2023-05-29T11:01:08;21.30;84.30
18948;DHT22;9607;51.600;7.558;2023-05-29T11:03:35;21.40;82.60
18948;DHT22;9607;51.600;7.558;2023-05-29T11:06:03;21.50;81.90
18948;DHT22;9607;51.600;7.558;2023-05-29T11:08:33;21.60;80.60
18948;DHT22;9607;51.600;7.558;2023-05-29T11:11:01;21.60;80.80
18948;DHT22;9607;51.600;7.558;2023-05-29T11:13:32;21.60;78.90
18948;DHT22;9607;51.600;7.558;2023-05-29T11:16:08;21.30;77.70
18948;DHT22;9607;51.600;7.558;2023-05-29T11:18:39;21.30;81.30
18948;DHT22;9607;51.600;7.558;2023-05-29T11:21:22;21.50;82.60
18948;DHT22;9607;51.600;7.558;2023-05-29T11:23:51;21.70;79.60
18948;DHT22;9607;51.600;7.558;2023-05-29T11:26:19;21.90;78.70
18948;DHT22;9607;51.600;7.558;2023-05-29T11:28:47;22.10;78.70
18948;DHT22;9607;51.600;7.558;2023-05-29T11:31:16;22.30;78.30
18948;DHT22;9607;51.600;7.558;2023-05-29T11:33:48;22.40;76.10
18948;DHT22;9607;51.600;7.558;2023-05-29T11:36:17;22.40;74.80
18948;DHT22;9607;51.600;7.558;2023-05-29T11:38:44;22.30;73.40
18948;DHT22;9607;51.600;7.558;2023-05-29T11:41:11;22.20;75.60
18948;DHT22;9607;51.600;7.558;2023-05-29T11:43:38;22.30;75.10
18948;DHT22;9607;51.600;7.558;2023-05-29T11:46:16;22.50;74.50
18948;DHT22;9607;51.600;7.558;2023-05-29T11:48:47;22.50;73.70
18948;DHT22;9607;51.600;7.558;2023-05-29T11:51:14;22.40;72.00
18948;DHT22;9607;51.600;7.558;2023-05-29T11:53:41;22.10;71.10
18948;DHT22;9607;51.600;7.558;2023-05-29T11:56:09;21.90;73.30
18948;DHT22;9607;51.600;7.558;2023-05-29T11:58:37;21.80;74.20
18948;DHT22;9607;51.600;7.558;2023-05-29T12:01:05;21.80;75.90
18948;DHT22;9607;51.600;7.558;2023-05-29T12:03:39;22.00;76.60
18948;DHT22;9607;51.600;7.558;2023-05-29T12:06:06;22.20;76.20
18948;DHT22;9607;51.600;7.558;2023-05-29T12:08:33;22.50;74.30
18948;DHT22;9607;51.600;7.558;2023-05-29T12:11:00;22.60;72.00
18948;DHT22;9607;51.600;7.558;2023-05-29T12:13:27;22.80;69.60
18948;DHT22;9607;51.600;7.558;2023-05-29T12:15:57;23.30;68.10
18948;DHT22;9607;51.600;7.558;2023-05-29T12:18:25;23.80;65.60
18948;DHT22;9607;51.600;7.558;2023-05-29T12:20:59;24.40;64.70
18948;DHT22;9607;51.600;7.558;2023-05-29T12:23:27;25.00;60.80
18948;DHT22;9607;51.600;7.558;2023-05-29T12:25:55;25.70;57.60
18948;DHT22;9607;51.600;7.558;2023-05-29T12:28:22;26.20;56.30
18948;DHT22;9607;51.600;7.558;2023-05-29T12:30:49;26.80;56.30
18948;DHT22;9607;51.600;7.558;2023-05-29T12:33:29;27.50;53.90
18948;DHT22;9607;51.600;7.558;2023-05-29T12:36:07;28.20;53.40
18948;DHT22;9607;51.600;7.558;2023-05-29T12:38:46;29.10;51.10
18948;DHT22;9607;51.600;7.558;2023-05-29T12:41:23;29.80;49.40
18948;DHT22;9607;51.600;7.558;2023-05-29T12:43:53;30.50;47.90
18948;DHT22;9607;51.600;7.558;2023-05-29T12:46:20;31.00;45.80
18948;DHT22;9607;51.600;7.558;2023-05-29T12:48:47;31.30;44.60
18948;DHT22;9607;51.600;7.558;2023-05-29T12:51:17;31.60;43.90
18948;DHT22;9607;51.600;7.558;2023-05-29T12:53:48;32.00;43.30
18948;DHT22;9607;51.600;7.558;2023-05-29T12:56:16;32.20;41.80
18948;DHT22;9607;51.600;7.558;2023-05-29T12:58:42;32.10;41.80
18948;DHT22;9607;51.600;7.558;2023-05-29T13:01:12;31.80;41.00
18948;DHT22;9607;51.600;7.558;2023-05-29T13:03:40;31.40;42.20
18948;DHT22;9607;51.600;7.558;2023-05-29T13:06:08;31.20;43.20
18948;DHT22;9607;51.600;7.558;2023-05-29T13:08:36;31.00;42.90
18948;DHT22;9607;51.600;7.558;2023-05-29T13:11:03;30.90;42.70
18948;DHT22;9607;51.600;7.558;2023-05-29T13:13:30;30.80;44.10
18948;DHT22;9607;51.600;7.558;2023-05-29T13:15:57;30.90;43.20
18948;DHT22;9607;51.600;7.558;2023-05-29T13:18:24;31.00;43.00
18948;DHT22;9607;51.600;7.558;2023-05-29T13:20:51;31.00;43.10
18948;DHT22;9607;51.600;7.558;2023-05-29T13:23:19;30.80;42.50
18948;DHT22;9607;51.600;7.558;2023-05-29T13:25:48;30.00;43.60
18948;DHT22;9607;51.600;7.558;2023-05-29T13:28:15;29.20;43.80
18948;DHT22;9607;51.600;7.558;2023-05-29T13:30:42;28.50;44.60
18948;DHT22;9607;51.600;7.558;2023-05-29T13:33:12;28.00;46.20
18948;DHT22;9607;51.600;7.558;2023-05-29T13:35:39;27.50;46.80
18948;DHT22;9607;51.600;7.558;2023-05-29T13:38:06;27.10;47.50
18948;DHT22;9607;51.600;7.558;2023-05-29T13:40:33;26.80;48.20
18948;DHT22;9607;51.600;7.558;2023-05-29T13:43:02;26.60;49.10
18948;DHT22;9607;51.600;7.558;2023-05-29T13:45:29;26.40;49.20
18948;DHT22;9607;51.600;7.558;2023-05-29T13:48:00;26.40;49.80
18948;DHT22;9607;51.600;7.558;2023-05-29T13:50:27;26.40;49.60
18948;DHT22;9607;51.600;7.558;2023-05-29T13:52:54;26.20;49.80
18948;DHT22;9607;51.600;7.558;2023-05-29T13:55:21;26.00;50.60
18948;DHT22;9607;51.600;7.558;2023-05-29T13:57:48;25.60;50.60
18948;DHT22;9607;51.600;7.558;2023-05-29T14:00:17;25.30;51.10
18948;DHT22;9607;51.600;7.558;2023-05-29T14:02:43;25.20;52.90
18948;DHT22;9607;51.600;7.558;2023-05-29T14:05:10;24.80;53.00
18948;DHT22;9607;51.600;7.558;2023-05-29T14:07:37;24.60;53.40
18948;DHT22;9607;51.600;7.558;2023-05-29T14:10:05;24.40;53.50
18948;DHT22;9607;51.600;7.558;2023-05-29T14:12:32;24.30;53.90
18948;DHT22;9607;51.600;7.558;2023-05-29T14:14:59;24.30;54.80
18948;DHT22;9607;51.600;7.558;2023-05-29T14:17:27;24.30;54.90
18948;DHT22;9607;51.600;7.558;2023-05-29T14:19:54;24.40;54.10
18948;DHT22;9607;51.600;7.558;2023-05-29T14:22:22;24.50;53.70
18948;DHT22;9607;51.600;7.558;2023-05-29T14:24:49;24.50;53.50
18948;DHT22;9607;51.600;7.558;2023-05-29T14:27:15;24.50;53.90
18948;DHT22;9607;51.600;7.558;2023-05-29T14:29:43;24.60;51.90
18948;DHT22;9607;51.600;7.558;2023-05-29T14:32:11;24.60;51.20
18948;DHT22;9607;51.600;7.558;2023-05-29T14:34:40;24.60;51.40
18948;DHT22;9607;51.600;7.558;2023-05-29T14:37:06;24.60;52.00
18948;DHT22;9607;51.600;7.558;2023-05-29T14:39:33;24.70;52.00
18948;DHT22;9607;51.600;7.558;2023-05-29T14:42:00;24.80;52.60
18948;DHT22;9607;51.600;7.558;2023-05-29T14:44:27;24.90;53.00
18948;DHT22;9607;51.600;7.558;2023-05-29T14:46:54;24.90;52.30
18948;DHT22;9607;51.600;7.558;2023-05-29T14:49:21;25.00;52.50
18948;DHT22;9607;51.600;7.558;2023-05-29T14:51:50;25.20;51.20
18948;DHT22;9607;51.600;7.558;2023-05-29T14:54:17;25.50;51.30
18948;DHT22;9607;51.600;7.558;2023-05-29T14:56:44;25.60;50.30
18948;DHT22;9607;51.600;7.558;2023-05-29T14:59:11;25.70;52.00
18948;DHT22;9607;51.600;7.558;2023-05-29T15:01:38;26.20;50.30
18948;DHT22;9607;51.600;7.558;2023-05-29T15:04:05;26.80;49.80
18948;DHT22;9607;51.600;7.558;2023-05-29T15:06:32;27.70;48.30
18948;DHT22;9607;51.600;7.558;2023-05-29T15:09:00;28.70;47.40
18948;DHT22;9607;51.600;7.558;2023-05-29T15:11:29;30.30;45.40
18948;DHT22;9607;51.600;7.558;2023-05-29T15:13:56;31.80;42.20
18948;DHT22;9607;51.600;7.558;2023-05-29T15:16:24;33.30;40.10
18948;DHT22;9607;51.600;7.558;2023-05-29T15:18:51;34.90;38.30
18948;DHT22;9607;51.600;7.558;2023-05-29T15:21:17;36.40;35.50
18948;DHT22;9607;51.600;7.558;2023-05-29T15:23:44;37.60;33.70
18948;DHT22;9607;51.600;7.558;2023-05-29T15:26:13;38.70;32.20
18948;DHT22;9607;51.600;7.558;2023-05-29T15:28:42;39.50;30.90
18948;DHT22;9607;51.600;7.558;2023-05-29T15:31:09;40.30;29.70
18948;DHT22;9607;51.600;7.558;2023-05-29T15:33:36;40.90;28.30
18948;DHT22;9607;51.600;7.558;2023-05-29T15:36:03;40.90;27.70
18948;DHT22;9607;51.600;7.558;2023-05-29T15:38:30;40.90;27.20
18948;DHT22;9607;51.600;7.558;2023-05-29T15:40:58;41.00;28.40
18948;DHT22;9607;51.600;7.558;2023-05-29T15:43:27;41.70;27.70
18948;DHT22;9607;51.600;7.558;2023-05-29T15:45:53;42.00;26.00
18948;DHT22;9607;51.600;7.558;2023-05-29T15:48:20;41.80;26.00
18948;DHT22;9607;51.600;7.558;2023-05-29T15:50:47;41.90;26.20
18948;DHT22;9607;51.600;7.558;2023-05-29T15:53:14;41.40;25.20
18948;DHT22;9607;51.600;7.558;2023-05-29T15:55:41;41.30;25.90
18948;DHT22;9607;51.600;7.558;2023-05-29T15:58:08;41.40;26.20
18948;DHT22;9607;51.600;7.558;2023-05-29T16:00:36;41.60;26.10
18948;DHT22;9607;51.600;7.558;2023-05-29T16:03:04;41.60;25.10
18948;DHT22;9607;51.600;7.558;2023-05-29T16:05:31;41.60;25.50
18948;DHT22;9607;51.600;7.558;2023-05-29T16:07:58;41.90;25.60
18948;DHT22;9607;51.600;7.558;2023-05-29T16:10:27;42.00;25.10
18948;DHT22;9607;51.600;7.558;2023-05-29T16:12:53;42.00;25.60
18948;DHT22;9607;51.600;7.558;2023-05-29T16:15:20;41.90;24.30
18948;DHT22;9607;51.600;7.558;2023-05-29T16:17:49;41.70;24.90
18948;DHT22;9607;51.600;7.558;2023-05-29T16:20:16;41.80;24.40
18948;DHT22;9607;51.600;7.558;2023-05-29T16:22:43;41.40;25.60
18948;DHT22;9607;51.600;7.558;2023-05-29T16:25:10;41.40;24.80
18948;DHT22;9607;51.600;7.558;2023-05-29T16:27:37;41.40;25.20
18948;DHT22;9607;51.600;7.558;2023-05-29T16:30:05;41.60;25.00
18948;DHT22;9607;51.600;7.558;2023-05-29T16:32:32;41.70;25.00
18948;DHT22;9607;51.600;7.558;2023-05-29T16:35:01;41.60;24.20
18948;DHT22;9607;51.600;7.558;2023-05-29T16:37:28;41.40;24.10
18948;DHT22;9607;51.600;7.558;2023-05-29T16:39:55;40.70;24.10
18948;DHT22;9607;51.600;7.558;2023-05-29T16:42:22;40.20;24.80
18948;DHT22;9607;51.600;7.558;2023-05-29T16:44:49;40.20;24.40
18948;DHT22;9607;51.600;7.558;2023-05-29T16:47:16;39.70;24.20
18948;DHT22;9607;51.600;7.558;2023-05-29T16:49:43;39.20;24.50